General Lucio Blanco International Airport
MMRX : now visible

Airfield :











YOU CAN JOIN US ON...

 
LOGIN :

Register | Disclaimer

   EN    FR    IT 

 









Legend :    VFR   Marginal VFR   IFR   Intensive IFR   Very Intensive IFR
Visi :
Ceiling :
>= 8 km
>= 3000ft
5 to 8 km
1000 to 3000 ft
1500m to 5 km
500 to 1000 ft
800 to 1500m
200 to 500 ft
< 800m
< 200 ft
Symbols :   Thunderstorms  Fog  Heavy snow  Heavy precipitations  Wind > 20 kt






- Airport Elevation : 139 ft
- IATA code : REX


MMRX - General Lucio Blanco International

CURRENT METAR :
  • 172145Z 16015G25KT 7SM SCT170 BKN280 29/17 A2974 RMK 8/032 HZY BLDU

EXPIRED METARs :
  • 172051Z 13012G22KT 7SM SCT035 SCT170 29/17 A2977 RMK SLP086 57042 991 8/530 HZY BLDU
  • 171951Z 16015KT 7SM SCT035 SCT170 29/17 A2981 RMK 8/530 HZY BLDU MSGTX MMMY

TAF COR TAF MMRX
Valid from the 17 at 18:00 until the 18 at 18:00 UTC


171956Z 1718/1818 15010G20KT 5SM HZ BKN015
TEMPO 1719/1723 15015G25KT 5SM BLDU
FM180300 15015KT 5SM HZ SCT015 SCT120 BKN220
TEMPO 1810/1814 2SM BR HZ BKN005 BKN120 BKN220
FM181500 16012G22KT 5SM HZ SCT015 BKN120 BKN250



MET'MAP, your aeronautical weather chart ! - Copyright ORBIFLY December 2007 - Disclaimer

ORBIFLY MET'MAP TEAM :

Programming & Development : Alexandra Zaïnal
Concept & original design : Baudouin d'Aumeries
Assistance for programming : Marc-Olivier Méhu
Technical & hardware support : Manuel Goepfert

Contact : metmap@orbifly.com




SOURCES & CREDITS :

   NOAA       Earth
Advisory